sensor_id;sensor_type;location;lat;lon;timestamp;pressure;altitude;pressure_sealevel;temperature;humidity
64158;BME280;50449;51.528;5.076;2024-01-27T00:01:04;103401.25;;;8.23;65.80
64158;BME280;50449;51.528;5.076;2024-01-27T00:03:30;103396.06;;;8.22;65.80
64158;BME280;50449;51.528;5.076;2024-01-27T00:05:55;103391.66;;;8.21;65.69
64158;BME280;50449;51.528;5.076;2024-01-27T00:08:21;103391.84;;;8.19;65.71
64158;BME280;50449;51.528;5.076;2024-01-27T00:10:47;103394.69;;;8.18;65.88
64158;BME280;50449;51.528;5.076;2024-01-27T00:13:12;103397.50;;;8.16;65.73
64158;BME280;50449;51.528;5.076;2024-01-27T00:15:38;103395.84;;;8.15;65.92
64158;BME280;50449;51.528;5.076;2024-01-27T00:18:04;103399.38;;;8.16;65.74
64158;BME280;50449;51.528;5.076;2024-01-27T00:20:29;103397.00;;;8.13;65.45
64158;BME280;50449;51.528;5.076;2024-01-27T00:22:55;103405.09;;;8.13;65.72
64158;BME280;50449;51.528;5.076;2024-01-27T00:25:20;103400.88;;;8.10;65.50
64158;BME280;50449;51.528;5.076;2024-01-27T00:27:45;103396.50;;;8.09;65.75
64158;BME280;50449;51.528;5.076;2024-01-27T00:30:11;103407.41;;;8.08;65.83
64158;BME280;50449;51.528;5.076;2024-01-27T00:32:37;103404.88;;;8.06;65.74
64158;BME280;50449;51.528;5.076;2024-01-27T00:35:03;103404.88;;;8.06;65.74
64158;BME280;50449;51.528;5.076;2024-01-27T00:37:28;103404.22;;;8.04;65.81
64158;BME280;50449;51.528;5.076;2024-01-27T00:39:54;103407.88;;;8.03;65.71
64158;BME280;50449;51.528;5.076;2024-01-27T00:42:20;103405.38;;;8.01;65.68
64158;BME280;50449;51.528;5.076;2024-01-27T00:44:50;103408.22;;;8.00;65.47
64158;BME280;50449;51.528;5.076;2024-01-27T00:47:15;103410.06;;;7.99;65.69
64158;BME280;50449;51.528;5.076;2024-01-27T00:49:41;103397.78;;;7.97;65.73
64158;BME280;50449;51.528;5.076;2024-01-27T00:52:06;103397.78;;;7.97;65.68
64158;BME280;50449;51.528;5.076;2024-01-27T00:54:31;103401.47;;;7.96;65.63
64158;BME280;50449;51.528;5.076;2024-01-27T00:56:57;103402.63;;;7.93;65.62
64158;BME280;50449;51.528;5.076;2024-01-27T00:59:22;103408.19;;;7.92;65.75
64158;BME280;50449;51.528;5.076;2024-01-27T01:01:48;103400.25;;;7.90;65.64
64158;BME280;50449;51.528;5.076;2024-01-27T01:04:13;103398.59;;;7.89;65.70
64158;BME280;50449;51.528;5.076;2024-01-27T01:06:39;103406.81;;;7.88;65.58
64158;BME280;50449;51.528;5.076;2024-01-27T01:09:05;103409.66;;;7.86;65.70
64158;BME280;50449;51.528;5.076;2024-01-27T01:11:31;103410.66;;;7.85;65.51
64158;BME280;50449;51.528;5.076;2024-01-27T01:13:56;103407.13;;;7.85;65.67
64158;BME280;50449;51.528;5.076;2024-01-27T01:16:22;103414.34;;;7.84;65.74
64158;BME280;50449;51.528;5.076;2024-01-27T01:18:47;103414.50;;;7.83;65.68
64158;BME280;50449;51.528;5.076;2024-01-27T01:21:12;103408.44;;;7.80;65.72
64158;BME280;50449;51.528;5.076;2024-01-27T01:23:38;103414.00;;;7.79;65.73
64158;BME280;50449;51.528;5.076;2024-01-27T01:26:03;103426.56;;;7.78;65.75
64158;BME280;50449;51.528;5.076;2024-01-27T01:28:29;103421.38;;;7.77;65.59
64158;BME280;50449;51.528;5.076;2024-01-27T01:30:55;103419.84;;;7.74;65.69
64158;BME280;50449;51.528;5.076;2024-01-27T01:33:21;103417.31;;;7.73;65.67
64158;BME280;50449;51.528;5.076;2024-01-27T01:35:46;103415.63;;;7.72;65.82
64158;BME280;50449;51.528;5.076;2024-01-27T01:38:11;103412.25;;;7.70;65.81
64158;BME280;50449;51.528;5.076;2024-01-27T01:40:37;103415.94;;;7.69;65.82
64158;BME280;50449;51.528;5.076;2024-01-27T01:43:02;103412.38;;;7.68;65.75
64158;BME280;50449;51.528;5.076;2024-01-27T01:45:29;103416.94;;;7.68;65.64
64158;BME280;50449;51.528;5.076;2024-01-27T01:47:55;103413.53;;;7.66;65.73
64158;BME280;50449;51.528;5.076;2024-01-27T01:50:20;103425.31;;;7.65;65.68
64158;BME280;50449;51.528;5.076;2024-01-27T01:52:48;103424.47;;;7.64;65.76
64158;BME280;50449;51.528;5.076;2024-01-27T01:55:14;103421.94;;;7.63;65.65
64158;BME280;50449;51.528;5.076;2024-01-27T01:57:42;103424.94;;;7.59;65.72
64158;BME280;50449;51.528;5.076;2024-01-27T02:00:09;103423.28;;;7.58;65.47
64158;BME280;50449;51.528;5.076;2024-01-27T02:02:34;103419.72;;;7.58;65.75
64158;BME280;50449;51.528;5.076;2024-01-27T02:05:00;103419.06;;;7.56;65.81
64158;BME280;50449;51.528;5.076;2024-01-27T02:07:25;103425.41;;;7.55;65.65
64158;BME280;50449;51.528;5.076;2024-01-27T02:09:50;103423.75;;;7.54;65.96
64158;BME280;50449;51.528;5.076;2024-01-27T02:12:16;103411.28;;;7.53;65.73
64158;BME280;50449;51.528;5.076;2024-01-27T02:14:41;103408.75;;;7.51;65.65
64158;BME280;50449;51.528;5.076;2024-01-27T02:17:07;103424.03;;;7.51;65.67
64158;BME280;50449;51.528;5.076;2024-01-27T02:19:32;103421.50;;;7.49;65.77
64158;BME280;50449;51.528;5.076;2024-01-27T02:21:57;103421.66;;;7.48;65.68
64158;BME280;50449;51.528;5.076;2024-01-27T02:24:23;103422.66;;;7.47;65.69
64158;BME280;50449;51.528;5.076;2024-01-27T02:26:48;103428.19;;;7.45;65.57
64158;BME280;50449;51.528;5.076;2024-01-27T02:29:14;103426.53;;;7.44;65.61
64158;BME280;50449;51.528;5.076;2024-01-27T02:31:39;103422.13;;;7.43;65.67
64158;BME280;50449;51.528;5.076;2024-01-27T02:34:04;103433.88;;;7.42;65.76
64158;BME280;50449;51.528;5.076;2024-01-27T02:36:30;103424.28;;;7.40;65.67
64158;BME280;50449;51.528;5.076;2024-01-27T02:38:55;103428.66;;;7.41;65.74
64158;BME280;50449;51.528;5.076;2024-01-27T02:41:21;103433.38;;;7.39;65.54
64158;BME280;50449;51.528;5.076;2024-01-27T02:43:46;103439.91;;;7.36;65.75
64158;BME280;50449;51.528;5.076;2024-01-27T02:46:12;103432.69;;;7.36;65.63
64158;BME280;50449;51.528;5.076;2024-01-27T02:48:41;103439.03;;;7.35;65.71
64158;BME280;50449;51.528;5.076;2024-01-27T02:51:07;103437.34;;;7.34;65.56
64158;BME280;50449;51.528;5.076;2024-01-27T02:53:33;103427.63;;;7.33;65.58
64158;BME280;50449;51.528;5.076;2024-01-27T02:55:58;103429.44;;;7.33;65.59
64158;BME280;50449;51.528;5.076;2024-01-27T02:58:23;103425.91;;;7.32;65.62
64158;BME280;50449;51.528;5.076;2024-01-27T03:00:49;103423.41;;;7.31;65.59
64158;BME280;50449;51.528;5.076;2024-01-27T03:03:14;103426.22;;;7.29;65.64
64158;BME280;50449;51.528;5.076;2024-01-27T03:05:40;103426.38;;;7.28;65.62
64158;BME280;50449;51.528;5.076;2024-01-27T03:08:06;103429.22;;;7.26;65.75
64158;BME280;50449;51.528;5.076;2024-01-27T03:10:31;103428.38;;;7.26;65.66
64158;BME280;50449;51.528;5.076;2024-01-27T03:12:57;103425.84;;;7.24;65.76
64158;BME280;50449;51.528;5.076;2024-01-27T03:15:22;103423.28;;;7.23;65.33
64158;BME280;50449;51.528;5.076;2024-01-27T03:17:48;103435.06;;;7.22;65.41
64158;BME280;50449;51.528;5.076;2024-01-27T03:20:13;103434.22;;;7.21;65.55
64158;BME280;50449;51.528;5.076;2024-01-27T03:22:39;103436.22;;;7.19;65.65
64158;BME280;50449;51.528;5.076;2024-01-27T03:25:06;103437.19;;;7.18;65.67
64158;BME280;50449;51.528;5.076;2024-01-27T03:27:32;103435.53;;;7.17;65.54
64158;BME280;50449;51.528;5.076;2024-01-27T03:30:00;103434.69;;;7.17;65.56
64158;BME280;50449;51.528;5.076;2024-01-27T03:32:26;103443.06;;;7.13;65.65
64158;BME280;50449;51.528;5.076;2024-01-27T03:34:51;103437.69;;;7.13;65.73
64158;BME280;50449;51.528;5.076;2024-01-27T03:37:17;103444.22;;;7.11;65.43
64158;BME280;50449;51.528;5.076;2024-01-27T03:39:42;103435.28;;;7.10;65.81
64158;BME280;50449;51.528;5.076;2024-01-27T03:42:08;103442.50;;;7.10;65.52
64158;BME280;50449;51.528;5.076;2024-01-27T03:44:33;103440.81;;;7.09;65.66
64158;BME280;50449;51.528;5.076;2024-01-27T03:46:59;103440.97;;;7.07;65.61
64158;BME280;50449;51.528;5.076;2024-01-27T03:49:24;103436.59;;;7.06;65.46
64158;BME280;50449;51.528;5.076;2024-01-27T03:51:49;103442.13;;;7.05;65.49
64158;BME280;50449;51.528;5.076;2024-01-27T03:54:15;103443.13;;;7.04;65.71
64158;BME280;50449;51.528;5.076;2024-01-27T03:56:41;103439.59;;;7.03;65.54
64158;BME280;50449;51.528;5.076;2024-01-27T03:59:06;103443.28;;;7.02;65.74
64158;BME280;50449;51.528;5.076;2024-01-27T04:01:34;103438.06;;;7.01;65.38
64158;BME280;50449;51.528;5.076;2024-01-27T04:04:00;103435.53;;;6.99;65.51
64158;BME280;50449;51.528;5.076;2024-01-27T04:06:26;103437.38;;;6.99;65.77
64158;BME280;50449;51.528;5.076;2024-01-27T04:08:51;103438.34;;;6.98;65.68
64158;BME280;50449;51.528;5.076;2024-01-27T04:11:20;103440.38;;;6.96;65.57
64158;BME280;50449;51.528;5.076;2024-01-27T04:13:49;103440.38;;;6.96;65.53
64158;BME280;50449;51.528;5.076;2024-01-27T04:16:17;103433.47;;;6.93;65.68
64158;BME280;50449;51.528;5.076;2024-01-27T04:18:43;103433.47;;;6.93;65.54
64158;BME280;50449;51.528;5.076;2024-01-27T04:21:08;103438.97;;;6.91;65.57
64158;BME280;50449;51.528;5.076;2024-01-27T04:23:34;103440.81;;;6.91;65.51
64158;BME280;50449;51.528;5.076;2024-01-27T04:26:00;103429.38;;;6.89;65.49
64158;BME280;50449;51.528;5.076;2024-01-27T04:28:25;103435.75;;;6.88;65.75
64158;BME280;50449;51.528;5.076;2024-01-27T04:30:51;103435.91;;;6.86;65.58
64158;BME280;50449;51.528;5.076;2024-01-27T04:33:17;103444.94;;;6.85;65.50
64158;BME280;50449;51.528;5.076;2024-01-27T04:35:42;103445.09;;;6.84;65.47
64158;BME280;50449;51.528;5.076;2024-01-27T04:38:08;103450.47;;;6.84;65.67
64158;BME280;50449;51.528;5.076;2024-01-27T04:40:34;103437.19;;;6.82;65.56
64158;BME280;50449;51.528;5.076;2024-01-27T04:43:00;103452.47;;;6.82;65.50
64158;BME280;50449;51.528;5.076;2024-01-27T04:45:26;103445.56;;;6.79;65.59
64158;BME280;50449;51.528;5.076;2024-01-27T04:47:52;103451.06;;;6.78;65.76
64158;BME280;50449;51.528;5.076;2024-01-27T04:50:19;103445.03;;;6.76;65.53
64158;BME280;50449;51.528;5.076;2024-01-27T04:52:45;103447.72;;;6.76;65.48
64158;BME280;50449;51.528;5.076;2024-01-27T04:55:10;103449.69;;;6.74;65.64
64158;BME280;50449;51.528;5.076;2024-01-27T04:57:36;103443.47;;;6.73;65.70
64158;BME280;50449;51.528;5.076;2024-01-27T05:00:01;103441.78;;;6.72;65.39
64158;BME280;50449;51.528;5.076;2024-01-27T05:02:27;103452.53;;;6.72;65.47
64158;BME280;50449;51.528;5.076;2024-01-27T05:04:52;103449.13;;;6.70;65.46
64158;BME280;50449;51.528;5.076;2024-01-27T05:07:17;103450.97;;;6.69;65.63
64158;BME280;50449;51.528;5.076;2024-01-27T05:09:43;103454.69;;;6.68;65.54
64158;BME280;50449;51.528;5.076;2024-01-27T05:12:08;103453.84;;;6.68;65.51
64158;BME280;50449;51.528;5.076;2024-01-27T05:14:34;103460.19;;;6.67;65.57
64158;BME280;50449;51.528;5.076;2024-01-27T05:16:59;103453.97;;;6.66;65.58
64158;BME280;50449;51.528;5.076;2024-01-27T05:19:25;103453.28;;;6.64;65.38
64158;BME280;50449;51.528;5.076;2024-01-27T05:21:50;103447.06;;;6.64;65.33
64158;BME280;50449;51.528;5.076;2024-01-27T05:24:15;103440.84;;;6.63;65.47
64158;BME280;50449;51.528;5.076;2024-01-27T05:26:41;103450.75;;;6.63;65.55
64158;BME280;50449;51.528;5.076;2024-01-27T05:29:06;103429.41;;;6.61;65.56
64158;BME280;50449;51.528;5.076;2024-01-27T05:31:32;103434.78;;;6.61;65.71
64158;BME280;50449;51.528;5.076;2024-01-27T05:33:58;103432.22;;;6.60;65.45
64158;BME280;50449;51.528;5.076;2024-01-27T05:36:24;103430.56;;;6.59;65.43
64158;BME280;50449;51.528;5.076;2024-01-27T05:38:50;103431.56;;;6.58;65.61
64158;BME280;50449;51.528;5.076;2024-01-27T05:41:15;103436.94;;;6.58;65.64
64158;BME280;50449;51.528;5.076;2024-01-27T05:43:40;103440.59;;;6.57;65.43
64158;BME280;50449;51.528;5.076;2024-01-27T05:46:08;103434.53;;;6.55;65.46
64158;BME280;50449;51.528;5.076;2024-01-27T05:48:34;103426.63;;;6.53;65.75
64158;BME280;50449;51.528;5.076;2024-01-27T05:51:00;103428.44;;;6.53;65.40
64158;BME280;50449;51.528;5.076;2024-01-27T05:53:27;103432.16;;;6.52;65.46
64158;BME280;50449;51.528;5.076;2024-01-27T05:55:53;103438.66;;;6.49;65.26
64158;BME280;50449;51.528;5.076;2024-01-27T05:58:27;103435.97;;;6.49;65.47
64158;BME280;50449;51.528;5.076;2024-01-27T06:00:52;103433.44;;;6.47;65.67
64158;BME280;50449;51.528;5.076;2024-01-27T06:03:18;103433.59;;;6.46;65.31
64158;BME280;50449;51.528;5.076;2024-01-27T06:05:43;103431.88;;;6.45;65.56
64158;BME280;50449;51.528;5.076;2024-01-27T06:08:09;103439.94;;;6.45;65.52
64158;BME280;50449;51.528;5.076;2024-01-27T06:10:35;103432.06;;;6.43;65.77
64158;BME280;50449;51.528;5.076;2024-01-27T06:13:03;103434.75;;;6.43;65.65
64158;BME280;50449;51.528;5.076;2024-01-27T06:15:29;103425.13;;;6.41;65.55
64158;BME280;50449;51.528;5.076;2024-01-27T06:17:55;103430.50;;;6.41;65.34
64158;BME280;50449;51.528;5.076;2024-01-27T06:20:20;103432.34;;;6.40;65.48
64158;BME280;50449;51.528;5.076;2024-01-27T06:22:46;103430.81;;;6.38;65.50
64158;BME280;50449;51.528;5.076;2024-01-27T06:25:11;103424.56;;;6.37;65.59
64158;BME280;50449;51.528;5.076;2024-01-27T06:27:37;103416.69;;;6.36;65.50
64158;BME280;50449;51.528;5.076;2024-01-27T06:30:09;103424.88;;;6.34;65.64
64158;BME280;50449;51.528;5.076;2024-01-27T06:32:35;103428.72;;;6.32;65.62
64158;BME280;50449;51.528;5.076;2024-01-27T06:35:01;103438.59;;;6.31;65.75
64158;BME280;50449;51.528;5.076;2024-01-27T06:37:26;103430.69;;;6.29;65.66
64158;BME280;50449;51.528;5.076;2024-01-27T06:39:51;103430.69;;;6.29;65.51
64158;BME280;50449;51.528;5.076;2024-01-27T06:42:17;103438.91;;;6.28;65.59
64158;BME280;50449;51.528;5.076;2024-01-27T06:44:42;103445.25;;;6.27;65.57
64158;BME280;50449;51.528;5.076;2024-01-27T06:47:08;103448.09;;;6.25;65.53
64158;BME280;50449;51.528;5.076;2024-01-27T06:49:33;103448.25;;;6.24;65.74
64158;BME280;50449;51.528;5.076;2024-01-27T06:51:59;103455.44;;;6.23;65.44
64158;BME280;50449;51.528;5.076;2024-01-27T06:54:25;103465.34;;;6.23;65.47
64158;BME280;50449;51.528;5.076;2024-01-27T06:56:50;103469.88;;;6.22;65.58
64158;BME280;50449;51.528;5.076;2024-01-27T06:59:16;103477.06;;;6.22;65.43
64158;BME280;50449;51.528;5.076;2024-01-27T07:01:48;103472.69;;;6.21;65.49
64158;BME280;50449;51.528;5.076;2024-01-27T07:04:14;103474.69;;;6.19;65.40
64158;BME280;50449;51.528;5.076;2024-01-27T07:06:40;103481.03;;;6.18;65.87
64158;BME280;50449;51.528;5.076;2024-01-27T07:09:05;103478.50;;;6.16;65.69
64158;BME280;50449;51.528;5.076;2024-01-27T07:11:32;103481.19;;;6.16;65.61
64158;BME280;50449;51.528;5.076;2024-01-27T07:13:58;103479.63;;;6.14;65.68
64158;BME280;50449;51.528;5.076;2024-01-27T07:16:24;103475.94;;;6.15;65.43
64158;BME280;50449;51.528;5.076;2024-01-27T07:18:50;103481.63;;;6.12;65.62
64158;BME280;50449;51.528;5.076;2024-01-27T07:21:16;103477.97;;;6.13;65.57
64158;BME280;50449;51.528;5.076;2024-01-27T07:23:43;103476.25;;;6.12;65.78
64158;BME280;50449;51.528;5.076;2024-01-27T07:26:12;103477.38;;;6.09;65.63
64158;BME280;50449;51.528;5.076;2024-01-27T07:28:37;103466.81;;;6.07;65.59
64158;BME280;50449;51.528;5.076;2024-01-27T07:31:03;103465.94;;;6.07;65.81
64158;BME280;50449;51.528;5.076;2024-01-27T07:33:29;103472.03;;;6.09;65.62
64158;BME280;50449;51.528;5.076;2024-01-27T07:35:54;103478.53;;;6.06;65.78
64158;BME280;50449;51.528;5.076;2024-01-27T07:38:20;103481.22;;;6.06;65.56
64158;BME280;50449;51.528;5.076;2024-01-27T07:40:45;103482.22;;;6.05;65.56
64158;BME280;50449;51.528;5.076;2024-01-27T07:43:11;103481.38;;;6.05;65.75
64158;BME280;50449;51.528;5.076;2024-01-27T07:45:36;103480.66;;;6.03;65.79
64158;BME280;50449;51.528;5.076;2024-01-27T07:48:02;103474.47;;;6.02;65.42
64158;BME280;50449;51.528;5.076;2024-01-27T07:50:28;103478.13;;;6.01;65.47
64158;BME280;50449;51.528;5.076;2024-01-27T07:52:53;103479.97;;;6.01;65.61
64158;BME280;50449;51.528;5.076;2024-01-27T07:55:19;103483.47;;;6.01;65.61
64158;BME280;50449;51.528;5.076;2024-01-27T07:57:44;103475.59;;;6.00;65.62
64158;BME280;50449;51.528;5.076;2024-01-27T08:00:10;103474.59;;;6.01;65.64
64158;BME280;50449;51.528;5.076;2024-01-27T08:02:35;103465.84;;;5.99;65.67
64158;BME280;50449;51.528;5.076;2024-01-27T08:05:02;103467.69;;;5.98;65.62
64158;BME280;50449;51.528;5.076;2024-01-27T08:07:28;103474.88;;;5.98;65.52
64158;BME280;50449;51.528;5.076;2024-01-27T08:09:54;103474.03;;;5.97;65.71
64158;BME280;50449;51.528;5.076;2024-01-27T08:12:19;103474.03;;;5.97;65.59
64158;BME280;50449;51.528;5.076;2024-01-27T08:14:44;103475.03;;;5.96;65.53
64158;BME280;50449;51.528;5.076;2024-01-27T08:17:10;103467.97;;;5.95;65.46
64158;BME280;50449;51.528;5.076;2024-01-27T08:19:35;103469.81;;;5.95;65.44
64158;BME280;50449;51.528;5.076;2024-01-27T08:22:01;103464.44;;;5.95;65.67
64158;BME280;50449;51.528;5.076;2024-01-27T08:24:26;103462.75;;;5.94;65.41
64158;BME280;50449;51.528;5.076;2024-01-27T08:26:51;103477.13;;;5.93;65.54
64158;BME280;50449;51.528;5.076;2024-01-27T08:29:17;103481.66;;;5.92;65.54
64158;BME280;50449;51.528;5.076;2024-01-27T08:31:42;103481.78;;;5.91;65.53
64158;BME280;50449;51.528;5.076;2024-01-27T08:34:08;103489.00;;;5.90;65.62
64158;BME280;50449;51.528;5.076;2024-01-27T08:36:34;103489.97;;;5.89;65.50
64158;BME280;50449;51.528;5.076;2024-01-27T08:39:00;103475.84;;;5.87;65.31
64158;BME280;50449;51.528;5.076;2024-01-27T08:41:25;103475.84;;;5.87;65.46
64158;BME280;50449;51.528;5.076;2024-01-27T08:43:51;103476.00;;;5.85;65.83
64158;BME280;50449;51.528;5.076;2024-01-27T08:46:16;103486.75;;;5.85;65.48
64158;BME280;50449;51.528;5.076;2024-01-27T08:48:44;103494.91;;;5.84;65.60
64158;BME280;50449;51.528;5.076;2024-01-27T08:51:10;103489.56;;;5.84;65.61
64158;BME280;50449;51.528;5.076;2024-01-27T08:53:37;103488.72;;;5.83;65.59
64158;BME280;50449;51.528;5.076;2024-01-27T08:56:02;103480.78;;;5.82;65.62
64158;BME280;50449;51.528;5.076;2024-01-27T08:58:28;103493.38;;;5.81;65.63
64158;BME280;50449;51.528;5.076;2024-01-27T09:00:53;103490.69;;;5.81;65.53
64158;BME280;50449;51.528;5.076;2024-01-27T09:03:19;103489.00;;;5.80;65.64
64158;BME280;50449;51.528;5.076;2024-01-27T09:05:46;103497.06;;;5.80;65.87
64158;BME280;50449;51.528;5.076;2024-01-27T09:08:12;103499.72;;;5.80;65.35
64158;BME280;50449;51.528;5.076;2024-01-27T09:10:37;103501.56;;;5.80;65.58
64158;BME280;50449;51.528;5.076;2024-01-27T09:13:03;103498.19;;;5.78;65.83
64158;BME280;50449;51.528;5.076;2024-01-27T09:15:28;103504.53;;;5.77;65.81
64158;BME280;50449;51.528;5.076;2024-01-27T09:17:53;103499.31;;;5.75;65.78
64158;BME280;50449;51.528;5.076;2024-01-27T09:20:19;103498.47;;;5.75;65.45
64158;BME280;50449;51.528;5.076;2024-01-27T09:22:45;103503.84;;;5.75;65.61
64158;BME280;50449;51.528;5.076;2024-01-27T09:25:12;103496.75;;;5.74;65.80
64158;BME280;50449;51.528;5.076;2024-01-27T09:27:39;103502.13;;;5.74;65.62
64158;BME280;50449;51.528;5.076;2024-01-27T09:30:05;103519.22;;;5.73;65.73
64158;BME280;50449;51.528;5.076;2024-01-27T09:32:30;103528.13;;;5.73;65.94
64158;BME280;50449;51.528;5.076;2024-01-27T09:34:56;103528.13;;;5.73;66.03
64158;BME280;50449;51.528;5.076;2024-01-27T09:37:21;103537.84;;;5.74;65.76
64158;BME280;50449;51.528;5.076;2024-01-27T09:39:46;103530.66;;;5.75;65.91
64158;BME280;50449;51.528;5.076;2024-01-27T09:42:13;103535.16;;;5.74;65.81
64158;BME280;50449;51.528;5.076;2024-01-27T09:44:43;103538.72;;;5.75;65.99
64158;BME280;50449;51.528;5.076;2024-01-27T09:47:12;103541.38;;;5.75;65.65
64158;BME280;50449;51.528;5.076;2024-01-27T09:49:39;103538.72;;;5.75;65.86
64158;BME280;50449;51.528;5.076;2024-01-27T09:52:06;103546.75;;;5.75;65.69
64158;BME280;50449;51.528;5.076;2024-01-27T09:54:32;103545.75;;;5.76;65.86
64158;BME280;50449;51.528;5.076;2024-01-27T09:56:58;103545.63;;;5.77;65.90
64158;BME280;50449;51.528;5.076;2024-01-27T09:59:25;103534.03;;;5.77;65.67
64158;BME280;50449;51.528;5.076;2024-01-27T10:01:52;103534.03;;;5.77;65.86
64158;BME280;50449;51.528;5.076;2024-01-27T10:04:19;103545.63;;;5.77;65.54
64158;BME280;50449;51.528;5.076;2024-01-27T10:06:49;103551.00;;;5.77;65.71
64158;BME280;50449;51.528;5.076;2024-01-27T10:09:16;103552.81;;;5.77;65.40
64158;BME280;50449;51.528;5.076;2024-01-27T10:11:45;103563.53;;;5.77;65.84
64158;BME280;50449;51.528;5.076;2024-01-27T10:14:11;103566.22;;;5.77;65.58
64158;BME280;50449;51.528;5.076;2024-01-27T10:16:44;103560.00;;;5.76;65.58
64158;BME280;50449;51.528;5.076;2024-01-27T10:19:19;103562.69;;;5.76;65.82
64158;BME280;50449;51.528;5.076;2024-01-27T10:21:46;103562.84;;;5.75;65.79
64158;BME280;50449;51.528;5.076;2024-01-27T10:24:11;103562.97;;;5.73;65.59
64158;BME280;50449;51.528;5.076;2024-01-27T10:26:37;103568.34;;;5.73;65.79
64158;BME280;50449;51.528;5.076;2024-01-27T10:29:02;103567.63;;;5.71;65.81
64158;BME280;50449;51.528;5.076;2024-01-27T10:31:29;103580.19;;;5.71;65.74
64158;BME280;50449;51.528;5.076;2024-01-27T10:33:56;103588.25;;;5.71;65.68
64158;BME280;50449;51.528;5.076;2024-01-27T10:36:22;103583.00;;;5.69;66.06
64158;BME280;50449;51.528;5.076;2024-01-27T10:38:48;103577.66;;;5.69;65.79
64158;BME280;50449;51.528;5.076;2024-01-27T10:41:24;103566.91;;;5.69;66.07
64158;BME280;50449;51.528;5.076;2024-01-27T10:43:51;103574.13;;;5.69;65.98
64158;BME280;50449;51.528;5.076;2024-01-27T10:46:19;103576.81;;;5.69;66.21
64158;BME280;50449;51.528;5.076;2024-01-27T10:48:50;103571.31;;;5.70;66.01
64158;BME280;50449;51.528;5.076;2024-01-27T10:51:26;103560.59;;;5.70;66.14
64158;BME280;50449;51.528;5.076;2024-01-27T10:54:01;103561.41;;;5.71;66.09
64158;BME280;50449;51.528;5.076;2024-01-27T10:56:29;103547.19;;;5.70;66.02
64158;BME280;50449;51.528;5.076;2024-01-27T10:58:57;103546.16;;;5.71;66.01
64158;BME280;50449;51.528;5.076;2024-01-27T11:01:24;103544.31;;;5.72;65.82
64158;BME280;50449;51.528;5.076;2024-01-27T11:03:52;103538.13;;;5.71;66.14
64158;BME280;50449;51.528;5.076;2024-01-27T11:06:22;103545.34;;;5.71;66.06
64158;BME280;50449;51.528;5.076;2024-01-27T11:08:49;103551.53;;;5.71;66.21
64158;BME280;50449;51.528;5.076;2024-01-27T11:11:15;103548.00;;;5.71;65.97
64158;BME280;50449;51.528;5.076;2024-01-27T11:13:40;103540.97;;;5.70;66.04
64158;BME280;50449;51.528;5.076;2024-01-27T11:16:15;103543.66;;;5.70;66.22
64158;BME280;50449;51.528;5.076;2024-01-27T11:18:42;103549.00;;;5.70;66.35
64158;BME280;50449;51.528;5.076;2024-01-27T11:21:13;103551.69;;;5.70;66.45
64158;BME280;50449;51.528;5.076;2024-01-27T11:23:39;103553.38;;;5.71;66.33
64158;BME280;50449;51.528;5.076;2024-01-27T11:26:08;103549.69;;;5.72;66.25
64158;BME280;50449;51.528;5.076;2024-01-27T11:28:35;103544.19;;;5.73;66.39
64158;BME280;50449;51.528;5.076;2024-01-27T11:31:08;103527.97;;;5.75;66.17
64158;BME280;50449;51.528;5.076;2024-01-27T11:33:40;103531.50;;;5.75;66.34
64158;BME280;50449;51.528;5.076;2024-01-27T11:36:06;103526.84;;;5.77;66.09
64158;BME280;50449;51.528;5.076;2024-01-27T11:38:33;103515.97;;;5.79;66.32
64158;BME280;50449;51.528;5.076;2024-01-27T11:41:01;103519.47;;;5.79;66.25
64158;BME280;50449;51.528;5.076;2024-01-27T11:43:27;103518.50;;;5.80;66.23
64158;BME280;50449;51.528;5.076;2024-01-27T11:45:59;103514.81;;;5.81;65.97
64158;BME280;50449;51.528;5.076;2024-01-27T11:48:25;103509.31;;;5.83;66.20
64158;BME280;50449;51.528;5.076;2024-01-27T11:51:20;103512.00;;;5.83;66.23
64158;BME280;50449;51.528;5.076;2024-01-27T11:53:45;103514.53;;;5.84;66.23
64158;BME280;50449;51.528;5.076;2024-01-27T11:56:13;103512.84;;;5.83;66.51
64158;BME280;50449;51.528;5.076;2024-01-27T11:58:46;103510.88;;;5.85;66.29
64158;BME280;50449;51.528;5.076;2024-01-27T12:01:11;103511.72;;;5.86;66.41
64158;BME280;50449;51.528;5.076;2024-01-27T12:03:37;103514.41;;;5.86;66.37
64158;BME280;50449;51.528;5.076;2024-01-27T12:06:02;103515.09;;;5.88;66.42
64158;BME280;50449;51.528;5.076;2024-01-27T12:08:28;103513.28;;;5.89;66.57
64158;BME280;50449;51.528;5.076;2024-01-27T12:10:53;103516.78;;;5.89;66.42
64158;BME280;50449;51.528;5.076;2024-01-27T12:13:18;103513.28;;;5.89;66.66
64158;BME280;50449;51.528;5.076;2024-01-27T12:15:44;103507.78;;;5.90;66.86
64158;BME280;50449;51.528;5.076;2024-01-27T12:18:10;103508.63;;;5.91;66.83
64158;BME280;50449;51.528;5.076;2024-01-27T12:20:35;103505.78;;;5.92;66.51
64158;BME280;50449;51.528;5.076;2024-01-27T12:23:07;103497.63;;;5.94;66.74
64158;BME280;50449;51.528;5.076;2024-01-27T12:25:33;103492.97;;;5.96;66.74
64158;BME280;50449;51.528;5.076;2024-01-27T12:28:02;103492.13;;;5.95;66.66
64158;BME280;50449;51.528;5.076;2024-01-27T12:30:28;103495.50;;;5.97;66.73
64158;BME280;50449;51.528;5.076;2024-01-27T12:32:53;103487.28;;;5.99;66.86
64158;BME280;50449;51.528;5.076;2024-01-27T12:35:19;103489.00;;;6.00;66.65
64158;BME280;50449;51.528;5.076;2024-01-27T12:37:44;103489.00;;;6.00;66.91
64158;BME280;50449;51.528;5.076;2024-01-27T12:40:19;103479.81;;;6.02;66.80
64158;BME280;50449;51.528;5.076;2024-01-27T12:42:45;103482.34;;;6.04;66.72
64158;BME280;50449;51.528;5.076;2024-01-27T12:45:11;103478.69;;;6.05;66.72
64158;BME280;50449;51.528;5.076;2024-01-27T12:47:36;103479.34;;;6.07;66.72
64158;BME280;50449;51.528;5.076;2024-01-27T12:50:01;103479.34;;;6.07;66.92
64158;BME280;50449;51.528;5.076;2024-01-27T12:52:27;103478.38;;;6.08;66.70
64158;BME280;50449;51.528;5.076;2024-01-27T12:54:52;103472.84;;;6.10;66.72